Spencer, SD

9:59 PM CDT on October 25, 2014 (GMT -0500)
Rural Canova, SD | Change Station
CLOSE
Current Station
Personal Weather Station
Location: Canova, SD
Elevation: 1542 ft
Nearby Weather Stations

Elev 1542 ft 43.81 °N, 97.48 °W | Updated 6 seconds ago

Clear
Clear
41.5 °F
Feels Like 39 °F
N
4.0
Wind Variable Wind from East
Gusts 5.0 mph

Today
High -- | Low -- °F
--% Chance of Precip.
Yesterday
High -- | Low -- °F
Precip. -- in
7:57 AM 6:30 PM
Waxing Crescent, 5% visible
Pressure 30.05 in
Visibility 10.0 miles
Clouds Clear
Windchill 39 °F
Dew Point 34 °F
Humidity 76%
Rainfall 0.00 in
Snow Depth Not available.
UV 0 out of 12
Pollen 1.70 out of 12
Air Quality Not available.
Flu Activity Sporadic
METAR KMHE 260253Z AUTO 14007KT 10SM CLR 09/01 A3004 RMK AO2 SLP175 T00940011 58006 $

More Conditions Fewer Conditions

Pressure 30.05 in
Visibility 10.0 miles
Clouds Clear
Windchill 39 °F
Dew Point 34 °F
Humidity 76%
Rainfall 0.00 in
Snow Depth Not available.
UV 0 out of 12
Pollen 1.70 out of 12
Air Quality Not available.
Flu Activity Sporadic
METAR KMHE 260253Z AUTO 14007KT 10SM CLR 09/01 A3004 RMK AO2 SLP175 T00940011 58006 $

More Conditions Fewer Conditions

10-Day Weather Forecast

Almanac

Astronomy

Oct. 25, 2014 Rise Set
Actual Time 7:57 AM CDT 6:30 PM CDT
Civil Twilight 7:27 AM CDT 7:00 PM CDT
Nautical Twilight 6:54 AM CDT 7:33 PM CDT
Astronomical Twilight 6:20 AM CDT 8:07 PM CDT
Moon 9:40 AM CDT (10/25) 7:52 PM CDT (10/25)
Length of Visible Light 11h 32m
Length of Day
10h 33m
Tomorrow will be 2m 46s shorter.
Waxing Crescent, 5% of the Moon is Illuminated
Today
Waxing Crescent
Oct 30
First Quarter
Nov 6
Full
Nov 14
Last Quarter
Nov 22
New

Today's Extremes

State Highs State Lows

Community

WunderPhotos

Upload Photos

1,765,086 photos uploaded!

Nearby

Snow Depth

Station Depth Elevation
North Rapid Creek 0 in 6130 ft
Blind Park 0 in 6890 ft

Earthquake Activity

City Distance Mag. Time & Date
No recent earthquake activity has been reported nearby.
Minimum magnitude displayed is 2.5.

Coastal Water Temperatures

Place Temperature
No Stations Reporting

Nearby Weather Stations